Garibaldi, OR (97118)

06:01 PDT le 22 mai 2015 (GMT -0700)
bay view-pacific coast | | Change Station
CLOSE
Current Station
Stations météorologiques personnelles
Location: Garibaldi, OR
Altitude: 50 ft
Stations météo à proximité

Alt. 50 ft 45.56 °N, 123.91 °W | Updated 1 minute ago

Couvert
Couvert
53.0 ° F
Paraît 53.0 ° F
N
0.0
Vent Variable Vent de Nord
Gusts 0.0 mph

Aujourd'hui
Haut(e) -- | Bas -- ° F
--% Risque de précip.
Hier
Haut(e) -- | Bas -- ° F
Precip. -- pouce
5:37 AM 8:47 PM
Lune montante, 21% visible
Pression 30.02 pouce
Visibilité 4.0 Miles terrestres
Nuages Nuageux 400 ft
Couvert 800 ft
Point de rosée 52 ° F
Humidité 95%
Précipitations 0.07 pouce
Profondeur de la couche neigeuse Non disponible.
UV 0 sur 12
Pollen 6.60 sur 12
Qualité de l'air Non disponible.
Flu Activity Local Activity
METAR KTMK 221255Z AUTO 00000KT 4SM BR BKN004 OVC008 12/11 A3002 RMK AO2 P0001

More Conditions Fewer Conditions

Pression 30.02 pouce
Visibilité 4.0 Miles terrestres
Nuages Nuageux 400 ft
Couvert 800 ft
Point de rosée 52 ° F
Humidité 95%
Précipitations 0.07 pouce
Profondeur de la couche neigeuse Non disponible.
UV 0 sur 12
Pollen 6.60 sur 12
Qualité de l'air Non disponible.
Flu Activity Local Activity
METAR KTMK 221255Z AUTO 00000KT 4SM BR BKN004 OVC008 12/11 A3002 RMK AO2 P0001

More Conditions Fewer Conditions

10-Day Weather Forecast

Almanac

Astronomie

May. 22, 2015 Lever Coucher
Temps réel
Crépuscule civil
Crépuscule nautique
Crépuscule astronomique
Lune
Durée de lumière visible
Longueur du jour
Tomorrow will be .
, % of the Moon is Illuminated

Extrêmes aujourd'hui

State Highs State Lows

Community

WunderPhotos

Upload Photos

1,823,210 Photos téléchargées !

WunderBlogs® & News

Nearby

Qualité de l'air

  Qualité de l'air Indice de la qualité de l'air Polluant
Not available.

Épaisseur de neige

Station Depth Altitude

Activité sismique

Ville Distance Mag. Time & Date
Minimum magnitude displayed is 2.5.

Températures des eaux côtières

Lieu Température

Stations

Stations météo à proximité

Emplacement de la station Température Refroidissement éolien Point de rosée Humidité Vent Precip. Alt. Mise à jour Type